createdAt,value
2018-10-06T00:00:09.009Z,13.80
2018-10-06T00:02:37.584Z,15.30
2018-10-06T00:05:06.328Z,13.90
2018-10-06T00:07:34.551Z,15.50
2018-10-06T00:10:02.825Z,15.07
2018-10-06T00:12:31.065Z,14.43
2018-10-06T00:14:59.329Z,17.20
2018-10-06T00:17:27.703Z,16.30
2018-10-06T00:19:56.839Z,34.60
2018-10-06T00:22:25.932Z,14.43
2018-10-06T00:24:54.186Z,19.03
2018-10-06T00:27:22.528Z,15.47
2018-10-06T00:29:50.807Z,18.90
2018-10-06T00:32:19.029Z,16.77
2018-10-06T00:34:47.237Z,18.93
2018-10-06T00:37:15.445Z,15.30
2018-10-06T00:39:43.686Z,25.37
2018-10-06T00:42:11.877Z,15.70
2018-10-06T00:44:40.173Z,17.70
2018-10-06T00:47:08.423Z,16.57
2018-10-06T00:49:36.936Z,14.83
2018-10-06T00:52:05.237Z,23.90
2018-10-06T00:54:33.505Z,16.73
2018-10-06T00:57:01.805Z,16.33
2018-10-06T00:59:30.096Z,18.67
2018-10-06T01:01:58.453Z,14.30
2018-10-06T01:04:26.674Z,14.23
2018-10-06T01:06:54.872Z,17.97
2018-10-06T01:09:23.139Z,16.77
2018-10-06T01:11:51.418Z,18.70
2018-10-06T01:14:19.622Z,15.30
2018-10-06T01:16:47.874Z,19.90
2018-10-06T01:19:16.078Z,13.57
2018-10-06T01:21:44.327Z,17.00
2018-10-06T01:24:12.525Z,20.03
2018-10-06T01:26:40.742Z,19.07
2018-10-06T01:29:08.977Z,15.03
2018-10-06T01:31:37.201Z,16.03
2018-10-06T01:34:05.402Z,14.40
2018-10-06T01:36:33.606Z,17.63
2018-10-06T01:39:01.814Z,17.10
2018-10-06T01:41:30.041Z,17.70
2018-10-06T01:43:58.285Z,15.87
2018-10-06T01:46:26.541Z,14.40
2018-10-06T01:48:54.808Z,15.20
2018-10-06T01:51:22.998Z,16.57
2018-10-06T01:53:51.221Z,15.37
2018-10-06T01:56:19.457Z,13.87
2018-10-06T01:58:47.673Z,18.27
2018-10-06T02:01:15.889Z,16.77
2018-10-06T02:03:44.116Z,15.70
2018-10-06T02:06:12.329Z,19.47
2018-10-06T02:08:40.590Z,17.40
2018-10-06T02:11:08.805Z,14.67
2018-10-06T02:13:37.046Z,15.00
2018-10-06T02:16:05.262Z,16.70
2018-10-06T02:18:33.500Z,17.03
2018-10-06T02:21:01.736Z,16.20
2018-10-06T02:23:29.957Z,21.60
2018-10-06T02:25:58.250Z,15.67
2018-10-06T02:28:26.478Z,15.87
2018-10-06T02:30:54.712Z,17.20
2018-10-06T02:33:22.939Z,20.90
2018-10-06T02:35:51.286Z,18.97
2018-10-06T02:38:19.501Z,18.20
2018-10-06T02:40:47.712Z,19.13
2018-10-06T02:43:15.956Z,18.03
2018-10-06T02:45:44.191Z,17.43
2018-10-06T02:48:12.412Z,17.63
2018-10-06T02:50:40.719Z,18.27
2018-10-06T02:53:09.478Z,16.30
2018-10-06T02:55:37.794Z,17.20
2018-10-06T02:58:06.186Z,15.33
2018-10-06T03:00:34.431Z,18.93
2018-10-06T03:03:02.691Z,15.73
2018-10-06T03:05:30.915Z,17.53
2018-10-06T03:07:59.143Z,22.63
2018-10-06T03:10:27.367Z,15.83
2018-10-06T03:12:55.822Z,16.53
2018-10-06T03:15:24.058Z,16.73
2018-10-06T03:17:52.278Z,19.10
2018-10-06T03:20:20.501Z,17.10
2018-10-06T03:22:48.729Z,17.23
2018-10-06T03:25:17.047Z,16.50
2018-10-06T03:27:45.266Z,18.93
2018-10-06T03:30:13.870Z,17.37
2018-10-06T03:32:42.208Z,16.77
2018-10-06T03:35:10.448Z,16.67
2018-10-06T03:37:38.645Z,15.73
2018-10-06T03:40:06.914Z,15.47
2018-10-06T03:42:35.145Z,19.30
2018-10-06T03:45:03.407Z,16.13
2018-10-06T03:47:31.637Z,18.03
2018-10-06T03:49:59.954Z,18.17
2018-10-06T03:52:28.169Z,18.53
2018-10-06T03:54:56.388Z,20.20
2018-10-06T03:57:24.642Z,18.83
2018-10-06T03:59:52.882Z,17.50
2018-10-06T04:02:21.098Z,16.60
2018-10-06T04:04:49.333Z,18.87
2018-10-06T04:07:17.550Z,18.87
2018-10-06T04:09:45.793Z,15.77
2018-10-06T04:12:14.049Z,17.27
2018-10-06T04:14:42.291Z,23.03
2018-10-06T04:17:10.570Z,22.63
2018-10-06T04:19:38.820Z,16.10
2018-10-06T04:22:07.064Z,15.50
2018-10-06T04:24:35.310Z,19.77
2018-10-06T04:27:03.514Z,22.13
2018-10-06T04:29:31.738Z,17.77
2018-10-06T04:31:59.966Z,18.70
2018-10-06T04:34:28.176Z,17.33
2018-10-06T04:36:56.446Z,19.33
2018-10-06T04:39:24.694Z,21.53
2018-10-06T04:41:52.909Z,16.40
2018-10-06T04:44:21.162Z,18.63
2018-10-06T04:46:49.381Z,18.97
2018-10-06T04:49:17.620Z,22.10
2018-10-06T04:51:45.829Z,15.87
2018-10-06T04:54:14.050Z,18.93
2018-10-06T04:56:42.282Z,18.40
2018-10-06T04:59:10.534Z,19.20
2018-10-06T05:01:38.756Z,16.13
2018-10-06T05:04:06.985Z,19.40
2018-10-06T05:06:35.234Z,17.37
2018-10-06T05:09:04.630Z,16.67
2018-10-06T05:11:32.866Z,17.40
2018-10-06T05:14:01.102Z,19.87
2018-10-06T05:16:29.309Z,18.23
2018-10-06T05:18:57.534Z,18.97
2018-10-06T05:21:25.768Z,17.70
2018-10-06T05:23:53.981Z,17.17
2018-10-06T05:26:22.258Z,16.90
2018-10-06T05:28:50.497Z,18.07
2018-10-06T05:31:18.738Z,20.40
2018-10-06T05:33:46.961Z,18.20
2018-10-06T05:36:15.185Z,20.17
2018-10-06T05:38:43.440Z,18.57
2018-10-06T05:41:11.689Z,19.57
2018-10-06T05:43:39.927Z,18.47
2018-10-06T05:46:08.315Z,21.40
2018-10-06T05:48:36.517Z,16.97
2018-10-06T05:51:04.765Z,18.87
2018-10-06T05:53:32.976Z,19.57
2018-10-06T05:56:01.190Z,15.27
2018-10-06T05:58:29.397Z,19.17
2018-10-06T06:00:57.629Z,21.57
2018-10-06T06:03:25.863Z,15.90
2018-10-06T06:05:54.107Z,16.80
2018-10-06T06:08:22.352Z,17.97
2018-10-06T06:10:50.582Z,18.20
2018-10-06T06:13:18.837Z,17.23
2018-10-06T06:15:47.140Z,15.63
2018-10-06T06:18:15.335Z,18.50
2018-10-06T06:20:49.062Z,20.97
2018-10-06T06:23:17.349Z,17.93
2018-10-06T06:25:45.595Z,18.63
2018-10-06T06:28:13.899Z,18.37
2018-10-06T06:30:42.142Z,18.00
2018-10-06T06:33:12.422Z,19.03
2018-10-06T06:35:40.674Z,19.33
2018-10-06T06:38:10.966Z,19.17
2018-10-06T06:40:39.193Z,20.10
2018-10-06T06:43:07.507Z,22.23
2018-10-06T06:45:35.785Z,20.70
2018-10-06T06:48:03.977Z,19.43
2018-10-06T06:50:32.217Z,16.03
2018-10-06T06:53:00.407Z,18.33
2018-10-06T06:55:28.673Z,16.10
2018-10-06T06:57:56.909Z,18.10
2018-10-06T07:00:25.125Z,18.60
2018-10-06T07:02:53.358Z,17.57
2018-10-06T07:05:22.591Z,17.20
2018-10-06T07:07:50.934Z,14.83
2018-10-06T07:10:19.353Z,16.13
2018-10-06T07:12:47.547Z,16.20
2018-10-06T07:15:16.130Z,15.10
2018-10-06T07:17:44.451Z,16.73
2018-10-06T07:20:12.941Z,19.20
2018-10-06T07:22:41.257Z,15.83
2018-10-06T07:25:09.507Z,15.80
2018-10-06T07:27:37.864Z,16.73
2018-10-06T07:30:06.455Z,15.13
2018-10-06T07:32:45.675Z,14.60
2018-10-06T07:35:13.884Z,13.77
2018-10-06T07:37:42.106Z,15.70
2018-10-06T07:40:15.300Z,13.87
2018-10-06T07:42:43.542Z,13.73
2018-10-06T07:45:11.756Z,16.40
2018-10-06T07:47:41.045Z,13.80
2018-10-06T07:50:09.285Z,13.60
2018-10-06T07:52:37.478Z,13.03
2018-10-06T07:55:05.786Z,12.43
2018-10-06T07:57:34.038Z,15.23
2018-10-06T08:00:02.311Z,14.53
2018-10-06T08:02:30.532Z,13.27
2018-10-06T08:04:58.910Z,11.90
2018-10-06T08:07:27.168Z,12.90
2018-10-06T08:09:55.356Z,13.90
2018-10-06T08:12:23.628Z,10.80
2018-10-06T08:14:51.842Z,10.27
2018-10-06T08:17:20.148Z,10.87
2018-10-06T08:19:48.396Z,8.40
2018-10-06T08:22:16.639Z,9.37
2018-10-06T08:24:44.866Z,8.97
2018-10-06T08:27:13.210Z,8.47
2018-10-06T08:29:41.406Z,8.10
2018-10-06T08:32:09.746Z,9.57
2018-10-06T08:34:37.987Z,6.63
2018-10-06T08:37:06.204Z,9.27
2018-10-06T08:39:34.439Z,8.50
2018-10-06T08:42:02.644Z,7.20
2018-10-06T08:44:30.872Z,6.20
2018-10-06T08:46:59.077Z,11.17
2018-10-06T08:49:27.289Z,8.10
2018-10-06T08:51:55.505Z,8.30
2018-10-06T08:54:23.865Z,8.13
2018-10-06T08:56:53.158Z,7.40
2018-10-06T08:59:21.433Z,9.93
2018-10-06T09:01:49.644Z,7.50
2018-10-06T09:04:17.977Z,10.43
2018-10-06T09:06:47.242Z,8.90
2018-10-06T09:09:15.506Z,7.80
2018-10-06T09:11:43.789Z,9.67
2018-10-06T09:14:12.057Z,7.93
2018-10-06T09:16:40.264Z,7.63
2018-10-06T09:19:08.506Z,8.17
2018-10-06T09:21:36.732Z,11.87
2018-10-06T09:24:04.990Z,11.87
2018-10-06T09:26:33.225Z,8.87
2018-10-06T09:29:01.450Z,9.83
2018-10-06T09:31:29.661Z,9.73
2018-10-06T09:33:57.888Z,6.63
2018-10-06T09:36:26.137Z,8.27
2018-10-06T09:38:54.403Z,10.20
2018-10-06T09:41:22.608Z,7.33
2018-10-06T09:43:50.818Z,6.97
2018-10-06T09:46:19.042Z,8.23
2018-10-06T09:48:47.277Z,7.53
2018-10-06T09:51:15.510Z,6.70
2018-10-06T09:53:43.770Z,6.53
2018-10-06T09:56:11.978Z,7.07
2018-10-06T09:58:40.169Z,7.87
2018-10-06T10:01:13.768Z,6.43
2018-10-06T10:03:47.377Z,7.50
2018-10-06T10:06:15.569Z,8.30
2018-10-06T10:08:43.781Z,6.40
2018-10-06T10:11:12.020Z,5.10
2018-10-06T10:13:40.219Z,9.77
2018-10-06T10:16:08.446Z,7.80
2018-10-06T10:18:36.669Z,6.77
2018-10-06T10:21:04.896Z,11.33
2018-10-06T10:23:33.253Z,5.07
2018-10-06T10:26:01.342Z,6.00
2018-10-06T10:28:29.649Z,6.67
2018-10-06T10:30:57.812Z,6.13
2018-10-06T10:33:26.052Z,5.43
2018-10-06T10:35:54.251Z,8.53
2018-10-06T10:38:22.473Z,6.33
2018-10-06T10:40:50.693Z,8.47
2018-10-06T10:43:18.911Z,9.17
2018-10-06T10:45:47.106Z,7.40
2018-10-06T10:48:15.352Z,5.60
2018-10-06T10:50:43.598Z,6.93
2018-10-06T10:53:11.766Z,11.90
2018-10-06T10:55:40.051Z,9.03
2018-10-06T10:58:08.195Z,6.73
2018-10-06T11:00:36.471Z,5.53
2018-10-06T11:03:04.595Z,9.23
2018-10-06T11:05:32.792Z,9.17
2018-10-06T11:08:01.023Z,10.60
2018-10-06T11:10:29.214Z,5.80
2018-10-06T11:12:57.438Z,7.13
2018-10-06T11:15:25.665Z,5.30
2018-10-06T11:17:53.898Z,6.87
2018-10-06T11:20:22.100Z,6.90
2018-10-06T11:22:50.311Z,6.70
2018-10-06T11:25:18.580Z,8.00
2018-10-06T11:27:46.769Z,6.60
2018-10-06T11:30:14.994Z,8.03
2018-10-06T11:32:43.185Z,9.40
2018-10-06T11:35:11.409Z,7.03
2018-10-06T11:37:39.861Z,5.50
2018-10-06T11:40:07.905Z,5.87
2018-10-06T11:42:36.130Z,6.70
2018-10-06T11:45:04.395Z,5.67
2018-10-06T11:47:32.609Z,11.77
2018-10-06T11:50:01.165Z,7.30
2018-10-06T11:52:29.258Z,7.93
2018-10-06T11:54:57.466Z,8.47
2018-10-06T11:57:25.652Z,6.33
2018-10-06T11:59:53.958Z,10.83
2018-10-06T12:02:22.154Z,5.00
2018-10-06T12:04:50.366Z,6.87
2018-10-06T12:07:18.609Z,6.30
2018-10-06T12:09:46.831Z,8.23
2018-10-06T12:12:15.040Z,11.00
2018-10-06T12:14:43.244Z,8.07
2018-10-06T12:17:11.447Z,5.27
2018-10-06T12:19:39.677Z,7.00
2018-10-06T12:22:07.920Z,7.67
2018-10-06T12:24:36.145Z,7.23
2018-10-06T12:27:04.393Z,4.87
2018-10-06T12:29:32.612Z,7.27
2018-10-06T12:32:00.806Z,10.40
2018-10-06T12:34:29.029Z,8.67
2018-10-06T12:36:57.240Z,9.47
2018-10-06T12:39:25.431Z,7.40
2018-10-06T12:41:53.653Z,5.93
2018-10-06T12:44:21.879Z,6.40
2018-10-06T12:46:50.090Z,6.60
2018-10-06T12:49:18.299Z,7.70
2018-10-06T12:51:46.518Z,5.63
2018-10-06T12:54:14.664Z,9.43
2018-10-06T12:56:42.851Z,15.87
2018-10-06T12:59:11.077Z,4.57
2018-10-06T13:01:39.300Z,5.93
2018-10-06T13:04:07.497Z,8.13
2018-10-06T13:06:35.709Z,7.03
2018-10-06T13:09:04.869Z,5.20
2018-10-06T13:11:33.097Z,13.60
2018-10-06T13:14:01.314Z,16.17
2018-10-06T13:16:29.506Z,6.70
2018-10-06T13:18:57.716Z,5.63
2018-10-06T13:21:25.907Z,7.77
2018-10-06T13:23:54.102Z,4.83
2018-10-06T13:26:22.338Z,6.37
2018-10-06T13:28:50.557Z,4.13
2018-10-06T13:31:18.782Z,6.90
2018-10-06T13:33:46.993Z,5.90
2018-10-06T13:36:15.218Z,8.80
2018-10-06T13:38:43.436Z,6.13
2018-10-06T13:41:11.661Z,10.20
2018-10-06T13:43:39.877Z,7.73
2018-10-06T13:46:08.401Z,4.07
2018-10-06T13:48:36.602Z,5.20
2018-10-06T13:51:04.861Z,9.00
2018-10-06T13:53:33.071Z,4.90
2018-10-06T13:56:01.253Z,4.23
2018-10-06T13:58:29.482Z,7.13
2018-10-06T14:00:57.689Z,6.50
2018-10-06T14:03:26.025Z,3.43
2018-10-06T14:05:54.241Z,3.53
2018-10-06T14:08:22.446Z,8.50
2018-10-06T14:10:50.638Z,3.53
2018-10-06T14:13:18.841Z,5.07
2018-10-06T14:15:47.050Z,5.53
2018-10-06T14:18:15.278Z,6.63
2018-10-06T14:20:43.498Z,3.90
2018-10-06T14:23:11.694Z,8.80
2018-10-06T14:25:39.893Z,4.93
2018-10-06T14:28:08.098Z,8.30
2018-10-06T14:30:36.326Z,6.20
2018-10-06T14:33:04.530Z,4.47
2018-10-06T14:35:32.761Z,6.40
2018-10-06T14:38:00.978Z,6.30
2018-10-06T14:40:29.219Z,7.53
2018-10-06T14:42:57.485Z,5.93
2018-10-06T14:45:25.641Z,6.47
2018-10-06T14:47:53.837Z,5.17
2018-10-06T14:50:22.103Z,5.90
2018-10-06T14:52:50.306Z,3.90
2018-10-06T14:55:18.514Z,4.40
2018-10-06T14:57:46.717Z,4.17
2018-10-06T15:00:14.944Z,5.97
2018-10-06T15:02:43.171Z,5.93
2018-10-06T15:05:11.457Z,5.80
2018-10-06T15:07:39.728Z,5.73
2018-10-06T15:10:08.049Z,4.87
2018-10-06T15:12:36.344Z,7.80
2018-10-06T15:15:04.909Z,5.40
2018-10-06T15:17:33.161Z,8.07
2018-10-06T15:20:01.403Z,7.93
2018-10-06T15:22:29.655Z,4.70
2018-10-06T15:24:57.968Z,5.13
2018-10-06T15:27:26.245Z,5.33
2018-10-06T15:29:54.696Z,6.83
2018-10-06T15:32:22.976Z,5.93
2018-10-06T15:34:51.206Z,8.30
2018-10-06T15:37:19.506Z,6.57
2018-10-06T15:39:47.766Z,5.13
2018-10-06T15:42:16.028Z,6.30
2018-10-06T15:44:44.446Z,6.33
2018-10-06T15:47:12.697Z,5.43
2018-10-06T15:49:40.939Z,4.47
2018-10-06T15:52:09.242Z,8.07
2018-10-06T15:54:37.540Z,6.60
2018-10-06T15:57:06.026Z,5.17
2018-10-06T15:59:34.485Z,6.83
2018-10-06T16:02:02.871Z,6.07
2018-10-06T16:04:31.102Z,7.87
2018-10-06T16:06:59.339Z,5.60
2018-10-06T16:09:27.575Z,5.50
2018-10-06T16:11:55.812Z,6.80
2018-10-06T16:14:24.058Z,7.10
2018-10-06T16:16:52.320Z,6.13
2018-10-06T16:19:20.576Z,6.73
2018-10-06T16:21:48.834Z,8.77
2018-10-06T16:24:17.098Z,7.90
2018-10-06T16:26:45.373Z,7.37
2018-10-06T16:29:13.877Z,10.00
2018-10-06T16:31:42.112Z,5.93
2018-10-06T16:34:10.657Z,8.73
2018-10-06T16:36:38.900Z,6.73
2018-10-06T16:39:07.798Z,7.97
2018-10-06T16:41:36.146Z,8.67
2018-10-06T16:44:04.716Z,6.63
2018-10-06T16:46:33.072Z,5.57
2018-10-06T16:49:01.298Z,6.50
2018-10-06T16:51:29.610Z,6.60
2018-10-06T16:53:57.869Z,8.90
2018-10-06T16:56:26.124Z,9.40
2018-10-06T16:58:54.385Z,7.77
2018-10-06T17:01:22.671Z,7.50
2018-10-06T17:03:50.911Z,18.03
2018-10-06T17:06:19.225Z,9.27
2018-10-06T17:08:47.442Z,8.47
2018-10-06T17:11:15.730Z,10.93
2018-10-06T17:13:43.982Z,9.00
2018-10-06T17:16:12.213Z,7.70
2018-10-06T17:18:40.543Z,6.07
2018-10-06T17:21:08.748Z,11.67
2018-10-06T17:23:37.010Z,10.30
2018-10-06T17:26:05.245Z,9.03
2018-10-06T17:28:33.497Z,9.07
2018-10-06T17:31:01.798Z,9.63
2018-10-06T17:33:30.008Z,8.07
2018-10-06T17:35:58.240Z,12.50
2018-10-06T17:38:26.428Z,8.00
2018-10-06T17:40:54.685Z,9.60
2018-10-06T17:43:22.912Z,7.93
2018-10-06T17:45:51.253Z,7.10
2018-10-06T17:48:19.483Z,11.97
2018-10-06T17:50:47.803Z,11.87
2018-10-06T17:53:15.917Z,11.10
2018-10-06T17:55:44.115Z,9.40
2018-10-06T17:58:12.325Z,10.90
2018-10-06T18:00:40.526Z,6.80
2018-10-06T18:03:08.749Z,10.97
2018-10-06T18:05:38.024Z,12.97
2018-10-06T18:08:06.261Z,9.53
2018-10-06T18:10:34.473Z,9.80
2018-10-06T18:13:02.677Z,7.43
2018-10-06T18:15:31.939Z,10.00
2018-10-06T18:18:00.138Z,7.27
2018-10-06T18:20:28.442Z,8.50
2018-10-06T18:22:56.584Z,12.50
2018-10-06T18:25:24.839Z,20.33
2018-10-06T18:27:53.081Z,12.80
2018-10-06T18:30:21.322Z,13.33
2018-10-06T18:32:49.541Z,12.53
2018-10-06T18:35:17.753Z,13.20
2018-10-06T18:37:45.947Z,12.47
2018-10-06T18:40:14.181Z,10.90
2018-10-06T18:42:43.510Z,8.87
2018-10-06T18:45:11.885Z,9.17
2018-10-06T18:47:40.129Z,9.03
2018-10-06T18:50:08.370Z,8.40
2018-10-06T18:52:38.050Z,10.53
2018-10-06T18:55:06.422Z,8.37
2018-10-06T18:57:34.685Z,12.67
2018-10-06T19:00:03.136Z,12.83
2018-10-06T19:02:31.366Z,14.27
2018-10-06T19:04:59.598Z,10.80
2018-10-06T19:07:27.893Z,11.33
2018-10-06T19:09:56.136Z,10.27
2018-10-06T19:12:24.354Z,13.33
2018-10-06T19:14:52.577Z,10.57
2018-10-06T19:17:20.828Z,12.17
2018-10-06T19:19:49.057Z,8.00
2018-10-06T19:22:17.329Z,9.27
2018-10-06T19:24:45.658Z,10.67
2018-10-06T19:27:13.886Z,9.60
2018-10-06T19:29:42.121Z,13.73
2018-10-06T19:32:10.348Z,10.13
2018-10-06T19:34:38.582Z,13.37
2018-10-06T19:37:06.781Z,9.10
2018-10-06T19:39:35.096Z,10.07
2018-10-06T19:42:03.293Z,12.60
2018-10-06T19:44:31.573Z,12.13
2018-10-06T19:46:59.947Z,8.30
2018-10-06T19:49:28.155Z,10.07
2018-10-06T19:51:56.433Z,9.60
2018-10-06T19:54:24.673Z,12.70
2018-10-06T19:56:52.853Z,9.83
2018-10-06T19:59:21.070Z,10.27
2018-10-06T20:01:49.287Z,10.97
2018-10-06T20:04:17.592Z,11.20
2018-10-06T20:06:45.816Z,13.33
2018-10-06T20:09:14.018Z,11.70
2018-10-06T20:11:42.265Z,11.67
2018-10-06T20:14:10.486Z,13.37
2018-10-06T20:16:38.702Z,13.03
2018-10-06T20:19:07.055Z,12.47
2018-10-06T20:21:35.234Z,14.33
2018-10-06T20:24:03.506Z,15.17
2018-10-06T20:26:31.713Z,13.20
2018-10-06T20:28:59.954Z,12.10
2018-10-06T20:31:28.153Z,11.27
2018-10-06T20:33:56.450Z,10.93
2018-10-06T20:36:25.777Z,14.07
2018-10-06T20:38:54.016Z,16.47
2018-10-06T20:41:22.248Z,13.03
2018-10-06T20:43:50.489Z,10.60
2018-10-06T20:46:18.861Z,13.47
2018-10-06T20:48:47.932Z,11.40
2018-10-06T20:51:16.157Z,12.87
2018-10-06T20:53:44.386Z,11.00
2018-10-06T20:56:12.589Z,16.67
2018-10-06T20:58:40.965Z,13.87
2018-10-06T21:01:09.521Z,14.93
2018-10-06T21:03:37.736Z,17.77
2018-10-06T21:06:05.978Z,12.37
2018-10-06T21:08:34.219Z,11.37
2018-10-06T21:11:02.509Z,12.83
2018-10-06T21:13:30.681Z,14.47
2018-10-06T21:15:58.928Z,11.10
2018-10-06T21:18:27.219Z,9.20
2018-10-06T21:20:55.365Z,10.03
2018-10-06T21:23:23.577Z,10.40
2018-10-06T21:25:51.821Z,12.03
2018-10-06T21:28:20.102Z,9.27
2018-10-06T21:30:48.365Z,11.30
2018-10-06T21:33:16.581Z,12.87
2018-10-06T21:35:44.833Z,10.80
2018-10-06T21:38:13.041Z,14.10
2018-10-06T21:40:41.337Z,11.20
2018-10-06T21:43:14.545Z,14.73
2018-10-06T21:45:42.825Z,13.53
2018-10-06T21:48:11.101Z,11.20
2018-10-06T21:50:39.474Z,13.63
2018-10-06T21:53:07.738Z,11.10
2018-10-06T21:55:35.993Z,14.57
2018-10-06T21:58:04.330Z,10.33
2018-10-06T22:00:32.642Z,14.73
2018-10-06T22:03:00.994Z,11.83
2018-10-06T22:05:29.278Z,12.27
2018-10-06T22:07:57.560Z,12.67
2018-10-06T22:10:25.857Z,10.57
2018-10-06T22:12:55.155Z,10.33
2018-10-06T22:15:23.698Z,12.50
2018-10-06T22:17:51.813Z,11.00
2018-10-06T22:20:20.048Z,10.13
2018-10-06T22:22:48.265Z,9.90
2018-10-06T22:25:16.526Z,9.73
2018-10-06T22:27:44.765Z,13.87
2018-10-06T22:30:12.978Z,9.50
2018-10-06T22:32:41.245Z,13.60
2018-10-06T22:35:09.516Z,12.47
2018-10-06T22:37:37.718Z,16.67
2018-10-06T22:40:06.470Z,12.57
2018-10-06T22:42:34.706Z,15.57
2018-10-06T22:45:02.969Z,12.23
2018-10-06T22:47:31.153Z,11.67
2018-10-06T22:49:59.352Z,12.47
2018-10-06T22:52:27.584Z,13.30
2018-10-06T22:54:56.070Z,9.97
2018-10-06T22:57:24.383Z,13.23
2018-10-06T22:59:52.654Z,12.47
2018-10-06T23:02:20.871Z,12.80
2018-10-06T23:04:49.082Z,12.27
2018-10-06T23:07:17.351Z,14.80
2018-10-06T23:09:46.589Z,11.07
2018-10-06T23:12:14.780Z,11.57
2018-10-06T23:14:43.446Z,10.70
2018-10-06T23:17:11.672Z,12.27
2018-10-06T23:19:40.922Z,11.70
2018-10-06T23:22:09.223Z,13.30
2018-10-06T23:24:37.462Z,12.03
2018-10-06T23:27:05.885Z,11.47
2018-10-06T23:29:34.137Z,10.60
2018-10-06T23:32:02.372Z,11.87
2018-10-06T23:34:30.574Z,12.60
2018-10-06T23:36:58.784Z,13.20
2018-10-06T23:39:27.129Z,12.17
2018-10-06T23:41:55.350Z,10.87
2018-10-06T23:44:23.578Z,14.33
2018-10-06T23:46:51.784Z,15.60
2018-10-06T23:49:19.984Z,14.13
2018-10-06T23:51:48.193Z,11.67
2018-10-06T23:54:16.439Z,13.97
2018-10-06T23:56:44.693Z,14.40
2018-10-06T23:59:12.921Z,11.67
